Time;durP1;ratioP1;P1;durP2;ratioP2;P2;SDS_P1;SDS_P2;PMS_P1;PMS_P2;Temp;Humidity;BMP_temperature;BMP_pressure;BME280_temperature;BME280_humidity;BME280_pressure;Samples;Min_cycle;Max_cycle;Signal;HPM_P1;HPM_P2
2023/07/04 04:20:26;;;;;;;21.67;11.93;;;;;;;17.38;100.00;100221.03;5557257;32;291380;-84
2023/07/04 04:23:29;;;;;;;21.30;12.80;;;;;;;17.36;100.00;100223.81;5547299;32;33278;-84
2023/07/04 04:26:38;;;;;;;22.62;12.85;;;;;;;17.40;100.00;100227.09;5547337;32;33696;-84
2023/07/04 04:29:41;;;;;;;18.50;11.90;;;;;;;17.46;100.00;100229.28;5547329;32;34378;-84
2023/07/04 04:32:44;;;;;;;21.25;12.27;;;;;;;17.53;100.00;100235.03;5547870;32;35300;-84
2023/07/04 04:35:48;;;;;;;19.02;10.93;;;;;;;17.56;100.00;100232.09;5547754;32;33883;-84
2023/07/04 04:38:50;;;;;;;19.33;11.93;;;;;;;17.58;100.00;100235.50;5548222;32;33810;-84
2023/07/04 04:41:53;;;;;;;20.10;11.85;;;;;;;17.61;100.00;100242.44;5548435;32;34011;-84
2023/07/04 04:44:56;;;;;;;20.35;12.18;;;;;;;17.59;100.00;100244.37;5548833;32;33899;-83
2023/07/04 04:48:01;;;;;;;21.10;12.40;;;;;;;17.58;100.00;100245.38;5547797;32;33838;-84
2023/07/04 04:51:07;;;;;;;23.42;12.50;;;;;;;17.59;100.00;100237.19;5547950;32;34278;-84
2023/07/04 04:54:14;;;;;;;14.98;11.23;;;;;;;17.54;100.00;100226.00;5547962;32;33848;-84
2023/07/04 04:57:16;;;;;;;15.10;10.35;;;;;;;17.51;100.00;100224.41;5547692;32;33814;-84
2023/07/04 05:00:20;;;;;;;15.90;11.30;;;;;;;17.53;100.00;100224.28;5547694;32;33650;-84
2023/07/04 05:03:23;;;;;;;19.67;12.13;;;;;;;17.54;100.00;100227.84;5547511;32;33911;-84
2023/07/04 05:06:26;;;;;;;17.58;10.95;;;;;;;17.50;100.00;100237.97;5548187;32;34057;-84
2023/07/04 05:09:32;;;;;;;15.82;10.90;;;;;;;17.51;100.00;100247.72;5548353;32;33968;-84
2023/07/04 05:12:34;;;;;;;15.27;10.32;;;;;;;17.54;100.00;100268.06;5547660;32;34305;-84
2023/07/04 05:15:37;;;;;;;16.83;10.55;;;;;;;17.63;100.00;100262.81;5547254;32;33923;-84
2023/07/04 05:18:42;;;;;;;15.68;10.68;;;;;;;17.72;100.00;100277.28;5547172;32;34270;-84
2023/07/04 05:21:48;;;;;;;16.90;10.35;;;;;;;17.86;100.00;100286.03;5538684;32;34413;-84
2023/07/04 05:24:50;;;;;;;15.80;10.57;;;;;;;17.85;100.00;100292.38;5538976;32;33574;-84
2023/07/04 05:27:53;;;;;;;14.85;10.60;;;;;;;17.79;100.00;100291.03;5547123;32;33934;-84
2023/07/04 05:31:00;;;;;;;16.12;10.60;;;;;;;17.72;100.00;100285.34;5537916;32;33705;-84
2023/07/04 05:34:03;;;;;;;17.27;10.57;;;;;;;17.76;100.00;100275.22;5534786;32;33677;-84
2023/07/04 05:37:06;;;;;;;15.02;10.13;;;;;;;17.89;100.00;100285.78;5534954;32;34073;-84
2023/07/04 05:40:09;;;;;;;13.88;10.65;;;;;;;17.95;100.00;100279.91;5535109;32;33991;-84
2023/07/04 05:43:12;;;;;;;16.23;10.40;;;;;;;18.02;100.00;100283.81;5535426;32;33831;-85
2023/07/04 05:46:16;;;;;;;16.60;10.30;;;;;;;18.11;100.00;100282.19;5535154;32;33684;-85
2023/07/04 05:49:19;;;;;;;13.77;9.55;;;;;;;18.27;100.00;100291.66;5533040;32;33918;-84
2023/07/04 05:52:23;;;;;;;15.95;9.82;;;;;;;18.42;100.00;100290.34;5533402;32;34402;-85
2023/07/04 05:55:26;;;;;;;15.68;10.07;;;;;;;18.97;100.00;100293.84;5532850;32;33638;-88
2023/07/04 05:58:29;;;;;;;13.90;9.88;;;;;;;18.97;100.00;100300.03;5532928;32;33737;-91
2023/07/04 06:01:41;;;;;;;12.73;9.13;;;;;;;18.99;100.00;100298.09;5532557;32;34158;-86
2023/07/04 06:04:44;;;;;;;14.87;10.23;;;;;;;18.62;100.00;100300.41;5538426;32;33735;-82
2023/07/04 06:07:47;;;;;;;17.52;10.60;;;;;;;18.48;100.00;100309.62;5542688;32;34059;-83
2023/07/04 06:10:58;;;;;;;17.42;10.75;;;;;;;18.22;100.00;100304.59;5543838;32;33997;-83
2023/07/04 06:14:02;;;;;;;17.45;10.63;;;;;;;18.21;100.00;100309.16;5532768;32;34859;-83
2023/07/04 06:17:06;;;;;;;14.00;10.15;;;;;;;18.25;100.00;100310.56;5533834;32;34879;-84
2023/07/04 06:20:11;;;;;;;17.08;11.27;;;;;;;18.25;100.00;100307.06;5533079;32;34781;-83
2023/07/04 06:23:14;;;;;;;16.95;10.35;;;;;;;18.21;100.00;100310.97;5532463;32;34526;-82
2023/07/04 06:26:17;;;;;;;15.48;11.00;;;;;;;18.36;100.00;100315.03;5531987;32;34358;-82
2023/07/04 06:29:20;;;;;;;15.95;10.32;;;;;;;18.34;100.00;100311.63;5530633;32;34704;-83
2023/07/04 06:32:22;;;;;;;17.12;11.05;;;;;;;18.29;100.00;100314.72;5530727;32;33797;-82
2023/07/04 06:35:25;;;;;;;18.55;11.25;;;;;;;18.35;100.00;100317.88;5529727;32;33779;-83
2023/07/04 06:38:28;;;;;;;15.50;10.88;;;;;;;18.32;100.00;100327.03;5529736;32;34706;-83
2023/07/04 06:41:31;;;;;;;16.35;11.40;;;;;;;18.27;100.00;100324.75;5529639;32;33843;-82
2023/07/04 06:44:33;;;;;;;18.05;10.88;;;;;;;18.22;100.00;100326.09;5531055;32;33784;-83
2023/07/04 06:47:36;;;;;;;16.85;10.23;;;;;;;18.26;100.00;100325.69;5531309;32;33657;-83
2023/07/04 06:50:38;;;;;;;14.63;9.80;;;;;;;18.30;100.00;100332.53;5530995;32;33824;-83
2023/07/04 06:53:41;;;;;;;15.68;10.15;;;;;;;18.36;100.00;100331.16;5535191;32;33925;-83
2023/07/04 06:56:44;;;;;;;15.43;10.57;;;;;;;18.31;100.00;100331.53;5539860;32;33928;-83
2023/07/04 06:59:49;;;;;;;15.93;11.10;;;;;;;18.42;100.00;100329.78;5540977;32;33805;-83
2023/07/04 07:02:52;;;;;;;17.70;10.70;;;;;;;18.48;100.00;100334.66;5547021;32;33672;-83
2023/07/04 07:05:55;;;;;;;19.02;11.23;;;;;;;18.52;100.00;100330.75;5531153;32;34864;-84
2023/07/04 07:08:58;;;;;;;17.23;10.90;;;;;;;18.62;100.00;100329.94;5530446;32;33669;-83
2023/07/04 07:12:01;;;;;;;15.07;10.05;;;;;;;18.77;100.00;100317.91;5525050;32;33808;-83
2023/07/04 07:15:04;;;;;;;18.08;11.43;;;;;;;18.95;100.00;100322.66;5536824;32;34390;-82
2023/07/04 07:18:06;;;;;;;14.52;10.27;;;;;;;18.94;100.00;100334.41;5529486;32;33502;-82
2023/07/04 07:21:13;;;;;;;14.80;10.00;;;;;;;18.94;100.00;100329.88;5517437;32;33830;-82
2023/07/04 07:24:15;;;;;;;13.70;9.55;;;;;;;18.75;100.00;100327.06;5530269;32;33740;-82
2023/07/04 07:27:18;;;;;;;14.85;9.50;;;;;;;18.77;100.00;100333.16;5539340;32;34572;-82
2023/07/04 07:30:23;;;;;;;14.35;9.43;;;;;;;18.74;100.00;100330.75;5530307;32;33795;-82
2023/07/04 07:33:25;;;;;;;15.80;9.40;;;;;;;18.95;100.00;100334.28;5530657;32;33809;-82
2023/07/04 07:36:37;;;;;;;16.90;10.05;;;;;;;19.05;100.00;100338.91;5530856;32;33658;-82
2023/07/04 07:39:40;;;;;;;15.40;9.65;;;;;;;19.14;100.00;100338.09;5543462;32;34000;-83
2023/07/04 07:42:43;;;;;;;13.45;9.00;;;;;;;19.23;100.00;100333.75;5540725;32;33724;-83
2023/07/04 07:45:46;;;;;;;14.93;9.90;;;;;;;18.86;100.00;100343.13;5530017;32;33534;-82
2023/07/04 07:48:49;;;;;;;12.98;9.40;;;;;;;18.86;100.00;100343.13;5531300;32;33785;-82
2023/07/04 07:51:52;;;;;;;15.05;9.82;;;;;;;18.82;100.00;100344.38;5537580;32;33856;-82
2023/07/04 07:54:55;;;;;;;14.15;9.75;;;;;;;19.12;100.00;100346.28;5528753;32;33720;-81
2023/07/04 07:57:57;;;;;;;16.15;10.10;;;;;;;19.15;100.00;100339.78;5530149;32;33626;-82
2023/07/04 08:01:12;;;;;;;15.63;10.38;;;;;;;19.02;100.00;100337.28;5537199;32;33673;-87
2023/07/04 08:04:15;;;;;;;14.07;9.45;;;;;;;18.89;100.00;100334.81;5518648;32;34009;-84
2023/07/04 08:07:18;;;;;;;15.80;9.95;;;;;;;18.89;100.00;100325.88;5510113;32;34538;-81
2023/07/04 08:10:21;;;;;;;14.30;9.90;;;;;;;18.92;100.00;100337.25;5514357;32;34315;-82
2023/07/04 08:13:23;;;;;;;13.02;9.05;;;;;;;18.79;100.00;100337.44;5523867;32;34989;-83
2023/07/04 08:16:47;;;;;;;17.17;9.80;;;;;;;18.80;100.00;100336.44;5528735;32;33830;-83
2023/07/04 08:19:49;;;;;;;16.62;10.30;;;;;;;18.97;100.00;100344.91;5528900;32;33691;-83
2023/07/04 08:22:52;;;;;;;20.83;10.85;;;;;;;19.04;100.00;100346.09;5529952;32;34291;-82
2023/07/04 08:25:56;;;;;;;16.00;10.82;;;;;;;18.95;100.00;100355.78;5529337;32;33695;-83
2023/07/04 08:28:58;;;;;;;14.57;10.38;;;;;;;18.79;100.00;100350.84;5528727;32;33719;-82
2023/07/04 08:32:02;;;;;;;15.18;10.25;;;;;;;18.75;100.00;100351.25;5524859;32;33429;-83
2023/07/04 08:35:07;;;;;;;16.83;10.88;;;;;;;18.68;100.00;100354.47;5519495;32;33061;-83
2023/07/04 08:38:10;;;;;;;14.73;10.15;;;;;;;18.65;100.00;100346.66;5516216;32;34406;-83
2023/07/04 08:41:22;;;;;;;11.30;9.15;;;;;;;18.64;100.00;100350.31;5525501;32;33495;-83
2023/07/04 08:44:40;;;;;;;13.85;9.38;;;;;;;18.94;100.00;100348.69;5522951;32;33892;-83
2023/07/04 08:47:43;;;;;;;13.20;8.70;;;;;;;19.06;100.00;100354.03;5524743;32;33569;-82
2023/07/04 08:50:48;;;;;;;11.90;8.77;;;;;;;19.00;100.00;100352.69;5526419;32;34525;-83
2023/07/04 08:53:56;;;;;;;13.93;9.48;;;;;;;18.96;100.00;100343.19;5527187;32;33687;-83
2023/07/04 08:57:05;;;;;;;13.77;9.70;;;;;;;18.82;100.00;100345.22;5530527;32;34231;-83
2023/07/04 09:00:13;;;;;;;13.13;10.05;;;;;;;18.91;100.00;100337.38;5526985;32;33812;-83
2023/07/04 09:03:22;;;;;;;14.85;10.65;;;;;;;19.02;100.00;100339.97;5533166;32;33603;-83
2023/07/04 09:06:40;;;;;;;16.53;10.83;;;;;;;19.17;100.00;100342.34;5527676;32;33738;-84
2023/07/04 09:10:09;;;;;;;16.02;10.23;;;;;;;19.03;100.00;100347.09;5528017;32;34411;-87
2023/07/04 09:13:26;;;;;;;16.35;10.27;;;;;;;19.16;100.00;100351.41;5524908;32;33790;-84
2023/07/04 09:17:00;;;;;;;14.98;9.82;;;;;;;19.16;100.00;100352.25;5518046;32;33768;-83
2023/07/04 09:20:06;;;;;;;15.57;10.88;;;;;;;19.30;100.00;100356.41;5515157;32;34473;-83
2023/07/04 09:23:14;;;;;;;16.65;10.07;;;;;;;19.38;100.00;100348.56;5525629;32;33476;-83
2023/07/04 09:26:21;;;;;;;17.08;10.65;;;;;;;19.39;100.00;100357.47;5531442;32;34090;-84
2023/07/04 09:29:25;;;;;;;15.40;10.27;;;;;;;19.34;100.00;100357.88;5533716;32;34665;-84
2023/07/04 09:32:28;;;;;;;15.68;10.60;;;;;;;19.18;100.00;100360.19;5525578;32;33679;-83
2023/07/04 09:35:31;;;;;;;15.25;9.88;;;;;;;19.31;100.00;100363.50;5530896;32;34412;-83
2023/07/04 09:38:54;;;;;;;16.83;10.68;;;;;;;19.21;100.00;100358.06;5529226;32;34608;-83
2023/07/04 09:41:59;;;;;;;14.35;10.35;;;;;;;19.23;100.00;100358.81;5535198;32;34169;-83
2023/07/04 09:45:07;;;;;;;13.57;9.45;;;;;;;19.26;100.00;100368.41;5528535;32;34107;-84
2023/07/04 09:48:10;;;;;;;13.60;9.50;;;;;;;19.12;100.00;100365.09;5529855;32;34471;-83
2023/07/04 09:51:27;;;;;;;13.35;10.20;;;;;;;19.18;100.00;100368.25;5527833;32;33674;-83
2023/07/04 09:54:36;;;;;;;16.30;10.80;;;;;;;19.14;100.00;100359.59;5532557;32;34542;-84
2023/07/04 09:57:40;;;;;;;17.02;10.57;;;;;;;19.17;100.00;100361.16;5532565;32;35209;-88
2023/07/04 10:00:45;;;;;;;17.42;10.35;;;;;;;19.34;100.00;100365.06;5537665;32;34255;-90
2023/07/04 10:03:49;;;;;;;18.20;11.75;;;;;;;19.38;100.00;100367.38;5529621;32;34056;-86
2023/07/04 10:06:53;;;;;;;16.37;11.18;;;;;;;19.31;100.00;100368.87;5527289;32;33742;-85
2023/07/04 10:10:01;;;;;;;15.27;10.68;;;;;;;19.47;100.00;100354.94;5526092;32;33845;-85
2023/07/04 10:13:06;;;;;;;15.48;10.75;;;;;;;19.60;100.00;100356.53;5523140;32;33866;-84
2023/07/04 10:16:19;;;;;;;17.15;11.38;;;;;;;20.11;100.00;100351.19;5533914;32;33964;-85
2023/07/04 10:19:23;;;;;;;16.10;10.93;;;;;;;20.21;100.00;100346.66;5552367;32;34694;-84
2023/07/04 10:22:45;;;;;;;14.48;10.15;;;;;;;20.41;100.00;100347.53;5539185;32;33851;-85
2023/07/04 10:25:50;;;;;;;14.50;10.52;;;;;;;20.82;100.00;100349.22;5534825;32;34139;-85
2023/07/04 10:28:53;;;;;;;15.68;10.02;;;;;;;20.58;100.00;100350.53;5535136;32;34114;-86
2023/07/04 10:31:59;;;;;;;12.90;9.95;;;;;;;20.84;100.00;100358.00;5535164;32;34330;-85
2023/07/04 10:35:05;;;;;;;13.43;9.45;;;;;;;20.79;100.00;100344.09;5536454;32;34161;-85
2023/07/04 10:38:41;;;;;;;13.30;9.65;;;;;;;21.13;100.00;100347.19;5541800;32;33952;-86
2023/07/04 10:41:46;;;;;;;13.48;10.05;;;;;;;21.87;100.00;100348.34;5511992;32;34405;-86
2023/07/04 10:44:54;;;;;;;14.50;9.93;;;;;;;22.28;100.00;100342.53;5535665;32;33907;-86
2023/07/04 10:48:05;;;;;;;13.43;9.27;;;;;;;22.52;100.00;100339.22;5525755;32;33544;-86
2023/07/04 10:51:25;;;;;;;12.02;9.07;;;;;;;22.69;100.00;100339.34;5531893;32;34082;-85
2023/07/04 10:54:27;;;;;;;9.95;6.90;;;;;;;22.68;100.00;100340.38;5532447;32;33617;-90
2023/07/04 10:57:39;;;;;;;8.85;6.87;;;;;;;22.35;100.00;100343.59;5530369;32;34425;-90
2023/07/04 11:01:02;;;;;;;10.98;8.57;;;;;;;22.33;100.00;100345.63;5529173;32;33522;-86
2023/07/04 11:04:18;;;;;;;8.40;6.43;;;;;;;22.72;100.00;100345.28;5512120;32;34015;-86
2023/07/04 11:07:25;;;;;;;8.85;6.70;;;;;;;22.86;100.00;100335.78;5517716;32;34373;-86
2023/07/04 11:10:32;;;;;;;8.80;6.53;;;;;;;23.28;100.00;100331.44;5522080;32;33437;-85
2023/07/04 11:13:51;;;;;;;7.68;6.07;;;;;;;23.79;100.00;100330.69;5531952;32;33830;-85
2023/07/04 11:16:55;;;;;;;10.82;6.95;;;;;;;24.52;100.00;100329.28;5532818;32;34120;-86
2023/07/04 11:20:11;;;;;;;9.70;7.30;;;;;;;25.04;100.00;100330.78;5530393;32;34696;-86
2023/07/04 11:23:18;;;;;;;10.43;6.68;;;;;;;24.74;100.00;100330.50;5527782;32;33746;-84
2023/07/04 11:26:59;;;;;;;7.62;6.00;;;;;;;24.85;100.00;100330.16;5530939;32;33574;-85
2023/07/04 11:30:05;;;;;;;10.75;6.40;;;;;;;25.19;100.00;100321.97;5533872;32;34648;-85
2023/07/04 11:33:50;;;;;;;8.18;6.07;;;;;;;25.25;97.95;100322.09;5529715;32;33895;-86
2023/07/04 11:36:57;;;;;;;8.65;6.50;;;;;;;24.89;100.00;100320.66;5530215;32;33648;-86
2023/07/04 11:40:10;;;;;;;7.35;6.03;;;;;;;25.82;98.17;100324.78;5535115;32;34000;-86
2023/07/04 11:43:21;;;;;;;7.30;6.30;;;;;;;25.97;99.43;100322.16;5536707;32;34494;-85
2023/07/04 11:46:28;;;;;;;6.50;5.18;;;;;;;25.89;100.00;100322.19;5541306;32;35498;-85
2023/07/04 11:49:33;;;;;;;5.78;4.60;;;;;;;26.06;95.05;100331.94;5548396;32;35214;-85
2023/07/04 11:52:40;;;;;;;6.65;4.65;;;;;;;25.92;97.00;100333.56;5539328;32;34027;-86
2023/07/04 11:55:44;;;;;;;6.60;4.50;;;;;;;25.94;92.50;100326.06;5531297;32;34002;-86
2023/07/04 11:58:46;;;;;;;4.75;3.50;;;;;;;25.28;99.52;100315.47;5525672;32;33688;-86
2023/07/04 12:01:51;;;;;;;7.28;3.60;;;;;;;25.41;92.15;100317.63;5535354;32;33757;-86
2023/07/04 12:04:55;;;;;;;4.47;3.60;;;;;;;25.09;93.18;100319.44;5540839;32;34070;-86
2023/07/04 12:08:07;;;;;;;5.57;3.70;;;;;;;24.76;92.25;100315.75;5532176;32;33944;-85
2023/07/04 12:11:21;;;;;;;5.65;4.15;;;;;;;24.44;92.62;100314.72;5525637;32;33607;-86
2023/07/04 12:14:24;;;;;;;3.97;3.53;;;;;;;24.16;100.00;100312.34;5525459;32;33568;-86
2023/07/04 12:17:27;;;;;;;4.68;3.55;;;;;;;24.35;99.88;100310.34;5527613;32;34684;-86
2023/07/04 12:20:31;;;;;;;6.30;4.43;;;;;;;24.26;100.00;100308.63;5537024;32;34101;-84
2023/07/04 12:23:36;;;;;;;6.45;4.85;;;;;;;24.17;97.11;100308.63;5528324;32;33934;-83
2023/07/04 12:26:40;;;;;;;5.65;4.40;;;;;;;24.17;95.28;100305.03;5533698;32;34812;-85
2023/07/04 12:29:45;;;;;;;4.32;3.92;;;;;;;24.06;98.88;100301.63;5532282;32;34004;-85
2023/07/04 12:32:52;;;;;;;4.78;3.40;;;;;;;24.26;98.64;100303.19;5536812;32;33623;-85
2023/07/04 12:36:00;;;;;;;5.82;4.07;;;;;;;24.50;96.72;100299.66;5530029;32;34339;-85
2023/07/04 12:39:03;;;;;;;4.18;3.65;;;;;;;24.76;95.17;100304.91;5532558;32;34411;-89
2023/07/04 12:42:19;;;;;;;4.35;3.70;;;;;;;24.53;95.15;100295.75;5528324;32;34251;-89
2023/07/04 12:45:26;;;;;;;4.03;3.62;;;;;;;24.84;97.22;100297.78;5538908;32;33724;-85
2023/07/04 12:48:29;;;;;;;4.65;4.12;;;;;;;24.77;98.17;100286.75;5537792;32;33933;-86
2023/07/04 12:51:36;;;;;;;5.10;3.92;;;;;;;24.25;94.59;100282.53;5534808;32;33797;-86
2023/07/04 12:54:40;;;;;;;4.80;4.20;;;;;;;24.55;93.35;100282.88;5532452;32;33864;-86
2023/07/04 12:57:43;;;;;;;7.22;4.50;;;;;;;24.40;100.00;100291.69;5532921;32;33851;-85
2023/07/04 13:00:55;;;;;;;4.90;4.28;;;;;;;24.44;99.89;100287.63;5546026;32;34535;-85
2023/07/04 13:04:00;;;;;;;7.03;5.10;;;;;;;24.30;100.00;100291.00;5538870;32;33366;-85
2023/07/04 13:07:04;;;;;;;5.82;5.22;;;;;;;24.28;100.00;100287.63;5532124;32;33373;-84
2023/07/04 13:10:09;;;;;;;6.07;4.80;;;;;;;24.19;99.92;100284.91;5530647;32;33715;-86
2023/07/04 13:13:43;;;;;;;6.47;4.85;;;;;;;24.15;100.00;100288.13;5544447;32;32793;-86
2023/07/04 13:16:46;;;;;;;8.00;5.72;;;;;;;24.01;100.00;100284.16;5537896;32;32769;-86
2023/07/04 13:19:50;;;;;;;6.12;5.53;;;;;;;24.11;100.00;100278.63;5533811;32;33942;-86
2023/07/04 13:22:52;;;;;;;9.10;5.80;;;;;;;24.25;100.00;100283.41;5535840;32;35554;-86
2023/07/04 13:25:59;;;;;;;7.03;5.70;;;;;;;24.49;100.00;100290.66;5541923;32;33801;-86
2023/07/04 13:29:17;;;;;;;7.97;6.10;;;;;;;24.59;100.00;100295.09;5536286;32;33726;-86
2023/07/04 13:32:33;;;;;;;7.62;5.62;;;;;;;24.59;100.00;100278.81;5527248;32;32582;-86
2023/07/04 13:35:39;;;;;;;9.00;6.60;;;;;;;24.13;100.00;100279.31;5523447;32;34506;-86
2023/07/04 13:38:42;;;;;;;7.28;5.62;;;;;;;24.43;100.00;100283.22;5532392;32;33749;-85
2023/07/04 13:41:51;;;;;;;10.68;5.80;;;;;;;24.60;100.00;100280.50;5530906;32;33740;-89
2023/07/04 13:44:54;;;;;;;6.95;5.60;;;;;;;24.37;100.00;100275.75;5523803;32;33705;-90
2023/07/04 13:48:00;;;;;;;6.62;5.68;;;;;;;24.51;100.00;100274.25;5527391;32;34354;-86
2023/07/04 13:51:03;;;;;;;9.35;6.43;;;;;;;24.61;100.00;100271.34;5526174;32;33804;-86
2023/07/04 13:54:06;;;;;;;8.13;6.40;;;;;;;24.55;100.00;100269.31;5529668;32;33934;-86
2023/07/04 13:57:10;;;;;;;11.68;5.93;;;;;;;24.52;100.00;100265.09;5524585;32;33979;-86
2023/07/04 14:00:14;;;;;;;7.90;5.80;;;;;;;24.68;98.94;100266.91;5528607;32;33547;-86
2023/07/04 14:03:24;;;;;;;8.98;5.87;;;;;;;25.08;100.00;100264.31;5535227;32;34866;-86
2023/07/04 14:06:30;;;;;;;9.15;6.30;;;;;;;25.69;94.37;100265.59;5537039;32;34582;-86
2023/07/04 14:09:34;;;;;;;9.45;6.97;;;;;;;25.49;95.63;100263.28;5531258;32;34800;-85
2023/07/04 14:12:38;;;;;;;15.38;9.68;;;;;;;25.77;97.00;100268.28;5525332;32;34055;-86
2023/07/04 14:15:41;;;;;;;15.35;10.13;;;;;;;25.59;99.12;100259.56;5525235;32;33745;-85
2023/07/04 14:18:47;;;;;;;15.07;9.93;;;;;;;25.64;98.82;100249.00;5525972;32;34180;-86
2023/07/04 14:21:52;;;;;;;15.77;9.88;;;;;;;25.10;100.00;100240.56;5530157;32;34236;-85
2023/07/04 14:24:55;;;;;;;18.23;11.93;;;;;;;25.10;100.00;100234.28;5529097;32;34495;-86
2023/07/04 14:27:58;;;;;;;13.30;10.27;;;;;;;24.97;100.00;100229.41;5527543;32;34250;-86
2023/07/04 14:31:04;;;;;;;13.02;10.82;;;;;;;24.92;100.00;100235.38;5525737;32;33850;-86
2023/07/04 14:34:07;;;;;;;17.23;11.50;;;;;;;24.76;100.00;100226.25;5528202;32;33721;-86
2023/07/04 14:37:10;;;;;;;16.55;11.40;;;;;;;24.92;100.00;100224.53;5527283;32;33369;-86
2023/07/04 14:40:13;;;;;;;14.63;10.93;;;;;;;24.99;100.00;100216.53;5527681;32;34035;-86
2023/07/04 14:43:18;;;;;;;18.02;11.18;;;;;;;25.08;100.00;100206.50;5529913;32;33853;-86
2023/07/04 14:46:21;;;;;;;16.05;11.32;;;;;;;25.10;100.00;100213.41;5530786;32;34296;-86
2023/07/04 14:49:24;;;;;;;14.93;9.27;;;;;;;25.25;100.00;100209.97;5537224;32;34115;-86
2023/07/04 14:52:27;;;;;;;14.95;11.15;;;;;;;25.41;100.00;100212.63;5523500;32;34311;-85
2023/07/04 14:55:29;;;;;;;15.70;10.30;;;;;;;25.28;100.00;100206.91;5533863;32;34195;-86
2023/07/04 14:58:32;;;;;;;14.02;9.50;;;;;;;25.18;100.00;100201.69;5527057;32;34055;-86
2023/07/04 15:01:35;;;;;;;12.40;6.97;;;;;;;25.41;100.00;100207.19;5520712;32;33780;-86
2023/07/04 15:04:38;;;;;;;8.65;6.28;;;;;;;25.37;96.77;100204.97;5529212;32;34274;-86
2023/07/04 15:07:42;;;;;;;6.85;5.80;;;;;;;25.42;93.66;100205.31;5548306;32;33746;-86
2023/07/04 15:10:45;;;;;;;7.97;5.30;;;;;;;25.55;91.68;100208.31;5510898;32;34477;-86
2023/07/04 15:13:48;;;;;;;9.07;5.55;;;;;;;25.56;90.75;100199.13;5510088;32;33558;-86
2023/07/04 15:16:52;;;;;;;7.75;5.25;;;;;;;25.69;86.68;100200.41;5510664;32;34104;-86
2023/07/04 15:19:55;;;;;;;8.52;6.12;;;;;;;25.79;88.07;100200.19;5509852;32;33900;-86
2023/07/04 15:22:58;;;;;;;9.50;5.82;;;;;;;25.77;88.51;100203.09;5509687;32;33793;-86
2023/07/04 15:26:02;;;;;;;9.98;6.00;;;;;;;25.60;86.77;100199.63;5509524;32;33589;-85
